createdAt,value
2023-11-21T00:00:52.718Z,5.45
2023-11-21T00:03:40.264Z,6.60
2023-11-21T00:06:27.737Z,5.70
2023-11-21T00:09:16.557Z,5.38
2023-11-21T00:12:07.142Z,5.57
2023-11-21T00:14:58.518Z,5.22
2023-11-21T00:17:45.944Z,5.95
2023-11-21T00:20:33.203Z,4.97
2023-11-21T00:23:25.151Z,5.43
2023-11-21T00:26:15.415Z,5.30
2023-11-21T00:29:02.934Z,6.07
2023-11-21T00:31:50.203Z,6.97
2023-11-21T00:34:37.502Z,7.85
2023-11-21T00:37:25.202Z,5.22
2023-11-21T00:40:13.160Z,4.70
2023-11-21T00:43:01.204Z,4.47
2023-11-21T00:45:52.317Z,4.03
2023-11-21T00:48:39.516Z,3.90
2023-11-21T00:51:26.676Z,4.47
2023-11-21T00:54:18.139Z,4.20
2023-11-21T00:57:09.657Z,3.92
2023-11-21T00:59:56.829Z,3.67
2023-11-21T01:02:46.984Z,4.00
2023-11-21T01:05:35.491Z,3.25
2023-11-21T01:08:22.887Z,3.65
2023-11-21T01:11:11.589Z,3.28
2023-11-21T01:13:58.929Z,3.03
2023-11-21T01:16:46.934Z,3.40
2023-11-21T01:19:36.634Z,3.10
2023-11-21T01:22:27.385Z,3.08
2023-11-21T01:25:15.684Z,2.58
2023-11-21T01:28:03.190Z,2.75
2023-11-21T01:30:50.598Z,2.53
2023-11-21T01:33:37.850Z,2.63
2023-11-21T01:36:33.137Z,3.33
2023-11-21T01:39:24.930Z,3.45
2023-11-21T01:42:14.198Z,2.72
2023-11-21T01:45:06.050Z,2.05
2023-11-21T01:47:57.614Z,2.67
2023-11-21T01:50:46.098Z,3.03
2023-11-21T01:53:33.703Z,2.78
2023-11-21T01:56:20.968Z,2.42
2023-11-21T01:59:11.106Z,2.28
2023-11-21T02:01:58.270Z,2.78
2023-11-21T02:04:45.664Z,2.40
2023-11-21T02:07:33.494Z,2.58
2023-11-21T02:10:24.528Z,2.80
2023-11-21T02:13:12.424Z,2.67
2023-11-21T02:15:59.675Z,2.22
2023-11-21T02:18:49.744Z,2.40
2023-11-21T02:21:41.448Z,2.63
2023-11-21T02:24:31.049Z,2.45
2023-11-21T02:27:23.173Z,2.22
2023-11-21T02:30:14.586Z,1.80
2023-11-21T02:33:02.606Z,2.03
2023-11-21T02:35:50.202Z,2.22
2023-11-21T02:38:37.414Z,1.77
2023-11-21T02:41:24.756Z,1.95
2023-11-21T02:44:12.287Z,2.08
2023-11-21T02:47:01.714Z,2.40
2023-11-21T02:49:53.022Z,1.92
2023-11-21T02:52:43.636Z,1.85
2023-11-21T02:55:32.170Z,2.03
2023-11-21T02:58:19.411Z,1.40
2023-11-21T03:01:06.752Z,1.92
2023-11-21T03:03:57.065Z,1.90
2023-11-21T03:06:46.754Z,1.63
2023-11-21T03:09:36.583Z,1.70
2023-11-21T03:12:23.742Z,2.15
2023-11-21T03:15:11.279Z,1.80
2023-11-21T03:17:58.631Z,1.55
2023-11-21T03:20:48.264Z,1.65
2023-11-21T03:23:36.028Z,1.52
2023-11-21T03:26:23.552Z,1.67
2023-11-21T03:29:10.693Z,1.35
2023-11-21T03:31:57.924Z,1.52
2023-11-21T03:34:57.424Z,1.80
2023-11-21T03:37:45.198Z,1.42
2023-11-21T03:40:33.102Z,1.45
2023-11-21T03:43:20.354Z,1.33
2023-11-21T03:46:08.484Z,1.48
2023-11-21T03:48:56.769Z,1.48
2023-11-21T03:51:43.953Z,1.52
2023-11-21T03:54:31.144Z,1.73
2023-11-21T03:57:18.396Z,1.63
2023-11-21T04:00:09.870Z,1.75
2023-11-21T04:03:00.032Z,1.60
2023-11-21T04:05:48.405Z,1.38
2023-11-21T04:08:35.635Z,1.45
2023-11-21T04:11:23.188Z,1.40
2023-11-21T04:14:10.646Z,1.30
2023-11-21T04:16:57.863Z,1.52
2023-11-21T04:19:47.617Z,1.40
2023-11-21T04:22:34.840Z,1.90
2023-11-21T04:25:23.962Z,1.40
2023-11-21T04:28:11.192Z,1.92
2023-11-21T04:30:58.863Z,1.23
2023-11-21T04:33:46.158Z,1.77
2023-11-21T04:36:33.465Z,2.03
2023-11-21T04:39:21.213Z,1.80
2023-11-21T04:42:08.388Z,1.85
2023-11-21T04:44:56.084Z,1.30
2023-11-21T04:47:46.489Z,1.55
2023-11-21T04:50:33.705Z,1.40
2023-11-21T04:53:23.470Z,1.30
2023-11-21T04:56:10.695Z,1.30
2023-11-21T04:58:57.909Z,1.10
2023-11-21T05:01:45.282Z,2.03
2023-11-21T05:04:32.592Z,1.63
2023-11-21T05:07:19.803Z,1.60
2023-11-21T05:10:11.753Z,1.15
2023-11-21T05:12:59.717Z,1.70
2023-11-21T05:15:47.125Z,1.98
2023-11-21T05:18:35.507Z,1.90
2023-11-21T05:21:23.033Z,2.22
2023-11-21T05:24:12.683Z,2.20
2023-11-21T05:26:59.919Z,2.45
2023-11-21T05:29:47.101Z,2.15
2023-11-21T05:32:35.594Z,2.40
2023-11-21T05:35:22.893Z,2.30
2023-11-21T05:38:10.085Z,2.55
2023-11-21T05:40:57.427Z,2.53
2023-11-21T05:43:45.041Z,2.53
2023-11-21T05:46:34.686Z,2.72
2023-11-21T05:49:24.613Z,3.20
2023-11-21T05:52:11.864Z,3.63
2023-11-21T05:54:59.151Z,3.13
2023-11-21T05:57:46.429Z,3.00
2023-11-21T06:00:34.427Z,3.78
2023-11-21T06:03:21.775Z,3.10
2023-11-21T06:06:09.388Z,3.58
2023-11-21T06:08:58.899Z,4.20
2023-11-21T06:11:46.092Z,5.45
2023-11-21T06:14:36.333Z,4.30
2023-11-21T06:17:25.881Z,4.47
2023-11-21T06:20:16.421Z,5.22
2023-11-21T06:23:04.912Z,5.30
2023-11-21T06:25:52.494Z,5.03
2023-11-21T06:28:39.796Z,6.65
2023-11-21T06:31:27.131Z,5.90
2023-11-21T06:34:16.657Z,6.80
2023-11-21T06:37:04.004Z,7.07
2023-11-21T06:39:53.435Z,7.50
2023-11-21T06:42:40.665Z,7.13
2023-11-21T06:45:28.136Z,7.50
2023-11-21T06:48:16.110Z,7.80
2023-11-21T06:51:03.411Z,7.85
2023-11-21T06:53:53.075Z,8.30
2023-11-21T06:56:42.849Z,7.72
2023-11-21T06:59:32.504Z,7.32
2023-11-21T07:02:20.116Z,6.85
2023-11-21T07:05:10.315Z,7.00
2023-11-21T07:08:05.792Z,6.03
2023-11-21T07:10:55.968Z,6.18
2023-11-21T07:13:45.835Z,7.32
2023-11-21T07:16:33.131Z,7.93
2023-11-21T07:19:21.062Z,7.55
2023-11-21T07:22:09.609Z,7.03
2023-11-21T07:25:02.290Z,6.85
2023-11-21T07:30:39.592Z,5.90
2023-11-21T07:33:29.169Z,6.38
2023-11-21T07:36:20.597Z,5.85
2023-11-21T07:39:07.848Z,6.18
2023-11-21T07:41:59.113Z,5.40
2023-11-21T07:44:49.626Z,6.32
2023-11-21T07:47:39.311Z,4.72
2023-11-21T07:50:27.958Z,4.47
2023-11-21T07:53:15.799Z,4.80
2023-11-21T07:56:11.003Z,4.00
2023-11-21T07:59:03.928Z,3.25
2023-11-21T08:01:51.550Z,2.85
2023-11-21T08:04:38.971Z,2.83
2023-11-21T08:07:27.275Z,2.65
2023-11-21T08:10:15.363Z,2.78
2023-11-21T08:13:03.803Z,2.65
2023-11-21T08:15:51.506Z,2.30
2023-11-21T08:18:38.874Z,2.85
2023-11-21T08:21:30.432Z,2.38
2023-11-21T08:24:17.824Z,2.30
2023-11-21T08:27:06.957Z,2.22
2023-11-21T08:29:57.550Z,2.42
2023-11-21T08:32:44.878Z,2.40
2023-11-21T08:35:33.074Z,2.65
2023-11-21T08:38:23.864Z,3.05
2023-11-21T08:41:17.206Z,2.20
2023-11-21T08:44:09.500Z,1.92
2023-11-21T08:46:58.835Z,2.50
2023-11-21T08:49:48.842Z,2.38
2023-11-21T08:52:36.239Z,2.10
2023-11-21T08:55:23.721Z,2.20
2023-11-21T08:58:13.561Z,2.30
2023-11-21T09:01:00.871Z,1.63
2023-11-21T09:03:49.128Z,2.03
2023-11-21T09:06:39.178Z,1.98
2023-11-21T09:09:26.708Z,1.98
2023-11-21T09:12:14.406Z,2.08
2023-11-21T09:15:06.176Z,1.88
2023-11-21T09:17:54.157Z,1.90
2023-11-21T09:20:41.560Z,2.00
2023-11-21T09:23:28.873Z,2.20
2023-11-21T09:26:17.408Z,1.85
2023-11-21T09:29:09.257Z,2.00
2023-11-21T09:32:00.890Z,2.10
2023-11-21T09:34:52.619Z,2.08
2023-11-21T09:37:40.535Z,2.27
2023-11-21T09:40:28.189Z,2.15
2023-11-21T09:43:19.694Z,2.13
2023-11-21T09:46:12.020Z,2.00
2023-11-21T09:49:08.848Z,1.95
2023-11-21T09:52:04.560Z,2.38
2023-11-21T09:54:54.309Z,2.03
2023-11-21T09:57:44.283Z,2.15
2023-11-21T10:00:34.204Z,2.45
2023-11-21T10:03:24.499Z,1.80
2023-11-21T10:06:18.530Z,2.00
2023-11-21T10:09:13.990Z,11.88
2023-11-21T10:12:08.637Z,3.38
2023-11-21T10:15:13.612Z,4.55
2023-11-21T10:18:04.857Z,2.90
2023-11-21T10:20:57.548Z,2.53
2023-11-21T10:26:48.158Z,3.35
2023-11-21T10:29:45.687Z,3.92
2023-11-21T10:32:34.098Z,4.32
2023-11-21T10:35:22.880Z,4.47
2023-11-21T10:38:16.549Z,3.55
2023-11-21T10:41:06.413Z,3.78
2023-11-21T10:43:57.316Z,4.03
2023-11-21T10:46:52.228Z,3.83
2023-11-21T10:49:41.624Z,3.75
2023-11-21T10:52:31.632Z,3.92
2023-11-21T10:55:25.275Z,4.43
2023-11-21T10:58:15.880Z,4.18
2023-11-21T11:01:08.448Z,4.40
2023-11-21T11:03:58.944Z,4.20
2023-11-21T11:06:57.284Z,4.70
2023-11-21T11:09:46.518Z,4.25
2023-11-21T11:12:33.867Z,5.68
2023-11-21T11:15:22.012Z,4.18
2023-11-21T11:18:12.115Z,4.57
2023-11-21T11:21:21.861Z,5.32
2023-11-21T11:24:46.826Z,4.40
2023-11-21T11:28:01.013Z,7.50
2023-11-21T11:31:05.282Z,4.78
2023-11-21T11:34:21.836Z,4.43
2023-11-21T11:37:12.448Z,3.33
2023-11-21T11:40:01.316Z,2.65
2023-11-21T11:43:00.859Z,2.90
2023-11-21T11:45:53.104Z,2.97
2023-11-21T11:48:46.508Z,2.55
2023-11-21T11:51:34.189Z,3.38
2023-11-21T11:54:36.549Z,3.05
2023-11-21T11:57:27.116Z,2.97
2023-11-21T12:00:22.797Z,2.72
2023-11-21T12:03:11.169Z,2.78
2023-11-21T12:06:01.650Z,3.17
2023-11-21T12:08:48.859Z,3.35
2023-11-21T12:11:41.938Z,2.90
2023-11-21T12:14:31.259Z,3.33
2023-11-21T12:17:25.614Z,3.25
2023-11-21T12:20:18.634Z,3.72
2023-11-21T12:23:07.334Z,3.75
2023-11-21T12:25:54.747Z,3.92
2023-11-21T12:28:44.609Z,3.60
2023-11-21T12:31:37.330Z,4.00
2023-11-21T12:34:24.933Z,3.75
2023-11-21T12:37:12.245Z,3.60
2023-11-21T12:39:59.517Z,3.28
2023-11-21T13:52:01.860Z,3.38
2023-11-21T13:54:49.331Z,4.00
2023-11-21T13:57:36.754Z,4.13
2023-11-21T14:00:44.795Z,3.75
2023-11-21T14:03:53.909Z,3.55
2023-11-21T14:06:49.227Z,2.55
2023-11-21T14:09:45.576Z,2.88
2023-11-21T14:12:41.877Z,2.45
2023-11-21T14:15:30.377Z,2.35
2023-11-21T14:18:30.613Z,2.22
2023-11-21T14:21:20.464Z,1.95
2023-11-21T14:24:11.608Z,1.98
2023-11-21T14:27:01.593Z,1.73
2023-11-21T14:29:52.768Z,1.55
2023-11-21T14:32:40.538Z,1.70
2023-11-21T14:35:33.809Z,1.80
2023-11-21T14:38:21.522Z,1.70
2023-11-21T14:41:12.541Z,1.50
2023-11-21T14:44:01.045Z,2.00
2023-11-21T14:46:52.116Z,2.00
2023-11-21T14:49:54.438Z,2.25
2023-11-21T14:52:56.987Z,2.10
2023-11-21T14:55:52.791Z,2.90
2023-11-21T14:58:42.532Z,3.30
2023-11-21T15:01:54.428Z,4.20
2023-11-21T15:05:03.994Z,4.72
2023-11-21T15:07:58.801Z,4.35
2023-11-21T15:10:58.531Z,3.53
2023-11-21T15:13:46.375Z,4.43
2023-11-21T15:16:48.402Z,4.53
2023-11-21T15:19:37.951Z,5.05
2023-11-21T15:22:26.886Z,4.47
2023-11-21T15:25:19.114Z,4.38
2023-11-21T15:28:06.617Z,5.18
2023-11-21T15:30:58.979Z,4.85
2023-11-21T15:33:47.505Z,5.50
2023-11-21T15:36:34.909Z,5.20
2023-11-21T15:39:33.454Z,5.57
2023-11-21T15:42:24.880Z,5.95
2023-11-21T15:45:14.970Z,5.72
2023-11-21T15:48:07.478Z,6.15
2023-11-21T15:50:59.205Z,6.07
2023-11-21T15:53:50.520Z,7.55
2023-11-21T15:56:39.980Z,8.02
2023-11-21T15:59:33.260Z,8.68
2023-11-21T16:02:21.115Z,8.18
2023-11-21T16:05:09.753Z,9.07
2023-11-21T16:07:57.320Z,9.20
2023-11-21T16:10:44.933Z,8.40
2023-11-21T16:13:35.574Z,10.57
2023-11-21T16:16:23.784Z,9.10
2023-11-21T16:19:11.387Z,10.20
2023-11-21T16:21:58.886Z,9.50
2023-11-21T16:24:49.224Z,9.68
2023-11-21T16:27:39.654Z,10.75
2023-11-21T16:30:27.767Z,10.63
2023-11-21T16:33:15.404Z,11.80
2023-11-21T16:36:02.977Z,12.73
2023-11-21T16:38:50.457Z,11.70
2023-11-21T16:41:37.860Z,12.70
2023-11-21T16:44:25.989Z,13.27
2023-11-21T16:47:13.491Z,13.98
2023-11-21T16:50:01.244Z,13.20
2023-11-21T16:52:50.013Z,13.50
2023-11-21T16:55:40.032Z,16.00
2023-11-21T16:58:27.338Z,14.88
2023-11-21T17:01:14.826Z,15.43
2023-11-21T17:04:03.736Z,15.75
2023-11-21T17:06:51.234Z,15.55
2023-11-21T17:09:40.492Z,17.20
2023-11-21T17:12:28.943Z,15.65
2023-11-21T17:15:20.322Z,34.50
2023-11-21T17:18:09.510Z,27.00
2023-11-21T17:20:57.270Z,17.02
2023-11-21T17:23:44.771Z,17.17
2023-11-21T17:26:35.232Z,17.13
2023-11-21T17:29:23.353Z,17.88
2023-11-21T17:32:11.524Z,17.55
2023-11-21T17:35:02.523Z,17.90
2023-11-21T17:37:50.234Z,18.42
2023-11-21T17:40:37.951Z,19.00
2023-11-21T17:43:27.891Z,20.10
2023-11-21T17:46:26.669Z,26.27
2023-11-21T17:49:14.267Z,25.60
2023-11-21T17:52:01.740Z,30.88
2023-11-21T17:54:49.250Z,33.97
2023-11-21T17:57:36.983Z,29.85
2023-11-21T18:00:27.845Z,28.95
2023-11-21T18:03:15.640Z,23.45
2023-11-21T18:06:03.479Z,25.20
2023-11-21T18:08:53.557Z,24.88
2023-11-21T18:11:41.006Z,22.95
2023-11-21T18:14:33.356Z,25.98
2023-11-21T18:17:21.218Z,26.95
2023-11-21T18:20:12.132Z,25.50
2023-11-21T18:22:59.667Z,26.08
2023-11-21T18:25:52.460Z,26.45
2023-11-21T18:28:42.675Z,26.38
2023-11-21T18:31:31.768Z,27.33
2023-11-21T18:34:19.502Z,29.35
2023-11-21T18:37:08.011Z,26.85
2023-11-21T18:39:55.570Z,26.45
2023-11-21T18:42:46.508Z,27.50
2023-11-21T18:45:36.084Z,27.98
2023-11-21T18:48:23.722Z,26.92
2023-11-21T18:51:13.902Z,28.35
2023-11-21T18:54:01.650Z,25.75
2023-11-21T18:56:49.073Z,25.42
2023-11-21T18:59:37.072Z,26.40
2023-11-21T19:02:27.621Z,24.80
2023-11-21T19:05:18.521Z,27.00
2023-11-21T19:08:07.435Z,25.33
2023-11-21T19:10:55.262Z,26.45
2023-11-21T19:13:43.151Z,26.70
2023-11-21T19:16:30.519Z,28.15
2023-11-21T19:19:21.596Z,26.23
2023-11-21T19:22:09.568Z,27.08
2023-11-21T19:24:57.161Z,28.55
2023-11-21T19:27:45.327Z,26.45
2023-11-21T19:30:33.961Z,26.80
2023-11-21T19:33:21.640Z,25.42
2023-11-21T19:36:09.697Z,25.27
2023-11-21T19:38:59.696Z,24.88
2023-11-21T19:41:47.716Z,24.65
2023-11-21T19:44:38.038Z,23.75
2023-11-21T19:47:26.013Z,22.63
2023-11-21T19:50:14.083Z,23.67
2023-11-21T19:53:01.723Z,22.77
2023-11-21T19:55:49.409Z,22.55
2023-11-21T19:58:42.707Z,22.75
2023-11-21T20:01:31.179Z,22.90
2023-11-21T20:04:21.228Z,22.13
2023-11-21T20:07:09.133Z,22.90
2023-11-21T20:09:56.780Z,22.98
2023-11-21T20:12:52.216Z,23.02
2023-11-21T20:15:46.305Z,23.90
2023-11-21T20:18:34.488Z,23.38
2023-11-21T20:21:25.444Z,24.63
2023-11-21T20:24:15.288Z,23.95
2023-11-21T20:27:06.735Z,25.38
2023-11-21T20:29:54.110Z,26.15
2023-11-21T20:32:44.285Z,26.17
2023-11-21T20:35:34.748Z,26.67
2023-11-21T20:38:24.808Z,27.40
2023-11-21T20:41:15.754Z,27.85
2023-11-21T20:44:06.927Z,26.63
2023-11-21T20:47:03.505Z,25.40
2023-11-21T20:49:59.626Z,25.83
2023-11-21T20:52:47.304Z,27.50
2023-11-21T20:55:34.853Z,26.42
2023-11-21T20:58:22.377Z,27.33
2023-11-21T21:01:10.113Z,27.23
2023-11-21T21:03:57.825Z,25.63
2023-11-21T21:06:45.705Z,26.58
2023-11-21T21:09:33.847Z,27.33
2023-11-21T21:12:21.339Z,25.80
2023-11-21T21:15:12.506Z,24.98
2023-11-21T21:18:02.253Z,25.73
2023-11-21T21:20:51.884Z,25.17
2023-11-21T21:23:39.524Z,24.98
2023-11-21T21:26:29.406Z,23.95
2023-11-21T21:29:21.831Z,26.23
2023-11-21T21:32:09.592Z,25.77
2023-11-21T21:34:58.295Z,24.80
2023-11-21T21:37:48.405Z,24.42
2023-11-21T21:40:36.750Z,23.45
2023-11-21T21:43:26.143Z,25.38
2023-11-21T21:46:20.423Z,24.70
2023-11-21T21:49:07.917Z,24.13
2023-11-21T21:51:55.437Z,23.40
2023-11-21T21:54:45.251Z,23.52
2023-11-21T21:57:33.458Z,22.08
2023-11-21T22:00:24.950Z,24.08
2023-11-21T22:03:15.064Z,22.67
2023-11-21T22:06:02.609Z,24.58
2023-11-21T22:08:50.380Z,24.33
2023-11-21T22:11:37.865Z,23.05
2023-11-21T22:14:25.340Z,24.25
2023-11-21T22:17:18.091Z,24.70
2023-11-21T22:20:06.902Z,24.77
2023-11-21T22:22:54.406Z,24.60
2023-11-21T22:25:41.965Z,25.98
2023-11-21T22:28:29.701Z,25.05
2023-11-21T22:31:17.180Z,24.23
2023-11-21T22:34:05.271Z,25.65
2023-11-21T22:36:54.401Z,25.20
2023-11-21T22:39:45.410Z,25.40
2023-11-21T22:42:35.651Z,26.38
2023-11-21T22:45:25.441Z,25.98
2023-11-21T22:48:13.074Z,25.38
2023-11-21T22:51:00.575Z,26.25
2023-11-21T22:53:48.245Z,25.05
2023-11-21T22:56:38.399Z,25.77
2023-11-21T22:59:25.973Z,26.58
2023-11-21T23:02:15.064Z,26.50
2023-11-21T23:05:05.403Z,25.35
2023-11-21T23:07:52.872Z,23.88
2023-11-21T23:10:40.444Z,25.25
2023-11-21T23:13:28.922Z,23.23
2023-11-21T23:16:18.666Z,26.48
2023-11-21T23:19:06.506Z,25.27
2023-11-21T23:21:53.975Z,23.80
2023-11-21T23:24:42.582Z,25.38
2023-11-21T23:27:29.840Z,24.27
2023-11-21T23:30:17.173Z,24.08
2023-11-21T23:33:04.433Z,24.20
2023-11-21T23:35:51.766Z,25.00
2023-11-21T23:38:43.273Z,23.73
2023-11-21T23:41:30.687Z,24.48
2023-11-21T23:44:18.033Z,23.20
2023-11-21T23:47:05.492Z,22.48
2023-11-21T23:49:53.087Z,22.63
2023-11-21T23:52:40.363Z,22.48
2023-11-21T23:55:30.068Z,22.95
2023-11-21T23:58:17.867Z,23.50
